sensor_id;sensor_type;location;lat;lon;timestamp;pressure;altitude;pressure_sealevel;temperature;humidity
16094;BME280;8151;47.824;12.092;2022-09-20T00:01:31;96723.69;;;10.57;75.65
16094;BME280;8151;47.824;12.092;2022-09-20T00:04:03;96722.00;;;10.56;75.50
16094;BME280;8151;47.824;12.092;2022-09-20T00:06:33;96708.13;;;10.54;75.96
16094;BME280;8151;47.824;12.092;2022-09-20T00:09:03;96712.28;;;10.57;76.45
16094;BME280;8151;47.824;12.092;2022-09-20T00:11:33;96705.47;;;10.54;75.90
16094;BME280;8151;47.824;12.092;2022-09-20T00:14:04;96698.84;;;10.50;76.76
16094;BME280;8151;47.824;12.092;2022-09-20T00:16:37;96697.34;;;10.48;76.81
16094;BME280;8151;47.824;12.092;2022-09-20T00:19:11;96693.56;;;10.50;76.66
16094;BME280;8151;47.824;12.092;2022-09-20T00:21:42;96698.88;;;10.58;76.93
16094;BME280;8151;47.824;12.092;2022-09-20T00:24:10;96695.25;;;10.68;76.44
16094;BME280;8151;47.824;12.092;2022-09-20T00:26:38;96684.53;;;10.69;76.93
16094;BME280;8151;47.824;12.092;2022-09-20T00:29:07;96692.31;;;10.71;76.58
16094;BME280;8151;47.824;12.092;2022-09-20T00:31:36;96686.88;;;10.72;76.93
16094;BME280;8151;47.824;12.092;2022-09-20T00:34:09;96685.03;;;10.73;76.88
16094;BME280;8151;47.824;12.092;2022-09-20T00:36:55;96678.28;;;10.78;76.69
16094;BME280;8151;47.824;12.092;2022-09-20T00:39:23;96675.28;;;10.81;76.84
16094;BME280;8151;47.824;12.092;2022-09-20T00:41:52;96675.13;;;10.83;77.47
16094;BME280;8151;47.824;12.092;2022-09-20T00:44:42;96666.22;;;10.84;77.72
16094;BME280;8151;47.824;12.092;2022-09-20T00:47:15;96670.00;;;10.81;77.64
16094;BME280;8151;47.824;12.092;2022-09-20T00:49:54;96669.16;;;10.81;77.71
16094;BME280;8151;47.824;12.092;2022-09-20T00:52:23;96669.00;;;10.82;77.85
16094;BME280;8151;47.824;12.092;2022-09-20T00:54:53;96658.75;;;10.79;77.75
16094;BME280;8151;47.824;12.092;2022-09-20T00:57:22;96666.69;;;10.79;77.99
16094;BME280;8151;47.824;12.092;2022-09-20T00:59:51;96666.69;;;10.79;78.18
16094;BME280;8151;47.824;12.092;2022-09-20T01:02:25;96666.00;;;10.77;78.22
16094;BME280;8151;47.824;12.092;2022-09-20T01:04:57;96667.03;;;10.76;78.13
16094;BME280;8151;47.824;12.092;2022-09-20T01:07:26;96664.69;;;10.73;78.55
16094;BME280;8151;47.824;12.092;2022-09-20T01:09:54;96671.13;;;10.71;78.31
16094;BME280;8151;47.824;12.092;2022-09-20T01:12:26;96661.38;;;10.71;78.43
16094;BME280;8151;47.824;12.092;2022-09-20T01:14:57;96661.53;;;10.70;78.69
16094;BME280;8151;47.824;12.092;2022-09-20T01:17:28;96659.03;;;10.68;78.91
16094;BME280;8151;47.824;12.092;2022-09-20T01:20:10;96654.59;;;10.69;79.20
16094;BME280;8151;47.824;12.092;2022-09-20T01:22:47;96649.47;;;10.67;78.72
16094;BME280;8151;47.824;12.092;2022-09-20T01:25:29;96649.81;;;10.72;78.56
16094;BME280;8151;47.824;12.092;2022-09-20T01:28:08;96646.00;;;10.75;78.63
16094;BME280;8151;47.824;12.092;2022-09-20T01:30:40;96654.91;;;10.74;78.99
16094;BME280;8151;47.824;12.092;2022-09-20T01:33:18;96645.13;;;10.66;79.12
16094;BME280;8151;47.824;12.092;2022-09-20T01:35:52;96640.84;;;10.65;79.32
16094;BME280;8151;47.824;12.092;2022-09-20T01:38:28;96631.09;;;10.66;79.41
16094;BME280;8151;47.824;12.092;2022-09-20T01:41:05;96636.38;;;10.66;78.80
16094;BME280;8151;47.824;12.092;2022-09-20T01:43:39;96643.50;;;10.65;79.21
16094;BME280;8151;47.824;12.092;2022-09-20T01:46:23;96638.22;;;10.65;79.65
16094;BME280;8151;47.824;12.092;2022-09-20T01:49:04;96639.19;;;10.64;79.18
16094;BME280;8151;47.824;12.092;2022-09-20T02:00:56;96637.19;;;10.66;79.40
16094;BME280;8151;47.824;12.092;2022-09-20T02:03:50;96636.88;;;10.69;79.03
16094;BME280;8151;47.824;12.092;2022-09-20T02:06:37;96638.72;;;10.69;79.03
16094;BME280;8151;47.824;12.092;2022-09-20T02:09:28;96640.69;;;10.67;79.46
16094;BME280;8151;47.824;12.092;2022-09-20T02:15:14;96640.66;;;10.58;79.02
16094;BME280;8151;47.824;12.092;2022-09-20T02:17:54;96633.22;;;10.62;79.22
16094;BME280;8151;47.824;12.092;2022-09-20T02:20:31;96631.59;;;10.69;79.33
16094;BME280;8151;47.824;12.092;2022-09-20T02:23:11;96634.91;;;10.71;79.24
16094;BME280;8151;47.824;12.092;2022-09-20T02:26:08;96633.09;;;10.72;79.15
16094;BME280;8151;47.824;12.092;2022-09-20T02:29:01;96632.78;;;10.75;78.79
16094;BME280;8151;47.824;12.092;2022-09-20T02:31:51;96629.13;;;10.76;78.73
16094;BME280;8151;47.824;12.092;2022-09-20T02:34:36;96630.94;;;10.75;79.10
16094;BME280;8151;47.824;12.092;2022-09-20T02:37:24;96637.91;;;10.76;78.86
16094;BME280;8151;47.824;12.092;2022-09-20T02:40:15;96650.47;;;10.74;78.87
16094;BME280;8151;47.824;12.092;2022-09-20T02:42:52;96649.16;;;10.70;79.16
16094;BME280;8151;47.824;12.092;2022-09-20T02:45:29;96642.69;;;10.64;79.39
16094;BME280;8151;47.824;12.092;2022-09-20T02:48:02;96636.38;;;10.66;79.09
16094;BME280;8151;47.824;12.092;2022-09-20T02:50:39;96635.22;;;10.68;78.96
16094;BME280;8151;47.824;12.092;2022-09-20T02:53:21;96638.72;;;10.69;78.94
16094;BME280;8151;47.824;12.092;2022-09-20T02:56:00;96649.31;;;10.69;79.30
16094;BME280;8151;47.824;12.092;2022-09-20T02:58:39;96656.59;;;10.75;78.65
16094;BME280;8151;47.824;12.092;2022-09-20T03:01:21;96666.53;;;10.81;78.63
16094;BME280;8151;47.824;12.092;2022-09-20T03:03:58;96657.41;;;10.83;78.82
16094;BME280;8151;47.824;12.092;2022-09-20T03:06:38;96657.94;;;10.87;78.48
16094;BME280;8151;47.824;12.092;2022-09-20T03:09:12;96648.19;;;10.88;78.10
16094;BME280;8151;47.824;12.092;2022-09-20T03:11:50;96646.88;;;10.92;78.06
16094;BME280;8151;47.824;12.092;2022-09-20T03:14:25;96648.66;;;10.91;78.38
16094;BME280;8151;47.824;12.092;2022-09-20T03:17:02;96643.56;;;10.90;78.49
16094;BME280;8151;47.824;12.092;2022-09-20T03:19:47;96643.72;;;10.88;79.09
16094;BME280;8151;47.824;12.092;2022-09-20T03:22:30;96648.84;;;10.90;78.97
16094;BME280;8151;47.824;12.092;2022-09-20T03:25:20;96651.97;;;10.93;79.32
16094;BME280;8151;47.824;12.092;2022-09-20T03:28:04;96655.31;;;10.95;79.11
16094;BME280;8151;47.824;12.092;2022-09-20T03:30:45;96651.00;;;10.94;79.06
16094;BME280;8151;47.824;12.092;2022-09-20T03:33:25;96655.47;;;10.94;79.45
16094;BME280;8151;47.824;12.092;2022-09-20T03:36:05;96652.47;;;10.89;79.56
16094;BME280;8151;47.824;12.092;2022-09-20T03:39:01;96653.78;;;10.84;80.09
16094;BME280;8151;47.824;12.092;2022-09-20T03:41:46;96649.66;;;10.82;79.77
16094;BME280;8151;47.824;12.092;2022-09-20T03:44:31;96657.91;;;10.79;79.54
16094;BME280;8151;47.824;12.092;2022-09-20T03:47:09;96653.28;;;10.73;79.42
16094;BME280;8151;47.824;12.092;2022-09-20T03:50:06;96657.03;;;10.62;79.78
16094;BME280;8151;47.824;12.092;2022-09-20T03:52:53;96649.09;;;10.54;79.97
16094;BME280;8151;47.824;12.092;2022-09-20T03:55:50;96654.03;;;10.49;79.89
16094;BME280;8151;47.824;12.092;2022-09-20T03:58:27;96656.00;;;10.47;79.87
16094;BME280;8151;47.824;12.092;2022-09-20T04:01:22;96659.66;;;10.46;79.50
16094;BME280;8151;47.824;12.092;2022-09-20T04:03:56;96660.97;;;10.41;79.90
16094;BME280;8151;47.824;12.092;2022-09-20T04:12:28;96658.09;;;10.35;80.06
16094;BME280;8151;47.824;12.092;2022-09-20T04:15:07;96665.88;;;10.36;80.06
16094;BME280;8151;47.824;12.092;2022-09-20T04:17:47;96660.44;;;10.38;79.89
16094;BME280;8151;47.824;12.092;2022-09-20T04:20:22;96660.09;;;10.41;79.56
16094;BME280;8151;47.824;12.092;2022-09-20T04:22:55;96661.13;;;10.40;79.84
16094;BME280;8151;47.824;12.092;2022-09-20T04:25:29;96663.09;;;10.38;80.03
16094;BME280;8151;47.824;12.092;2022-09-20T04:28:18;96665.88;;;10.36;79.88
16094;BME280;8151;47.824;12.092;2022-09-20T04:30:50;96669.69;;;10.34;80.04
16094;BME280;8151;47.824;12.092;2022-09-20T04:33:25;96668.88;;;10.33;79.90
16094;BME280;8151;47.824;12.092;2022-09-20T04:36:03;96673.34;;;10.41;80.59
16094;BME280;8151;47.824;12.092;2022-09-20T04:39:10;96665.59;;;10.48;80.40
16094;BME280;8151;47.824;12.092;2022-09-20T04:45:34;96668.63;;;10.53;80.14
16094;BME280;8151;47.824;12.092;2022-09-20T04:48:25;96671.25;;;10.53;80.34
16094;BME280;8151;47.824;12.092;2022-09-20T04:51:19;96671.56;;;10.50;80.38
16094;BME280;8151;47.824;12.092;2022-09-20T04:57:27;96667.25;;;10.49;80.66
16094;BME280;8151;47.824;12.092;2022-09-20T05:00:04;96666.63;;;10.55;79.79
16094;BME280;8151;47.824;12.092;2022-09-20T05:03:05;96669.44;;;10.61;80.19
16094;BME280;8151;47.824;12.092;2022-09-20T05:05:55;96671.94;;;10.63;80.17
16094;BME280;8151;47.824;12.092;2022-09-20T05:08:56;96664.97;;;10.62;79.99
16094;BME280;8151;47.824;12.092;2022-09-20T05:11:56;96669.44;;;10.61;80.08
16094;BME280;8151;47.824;12.092;2022-09-20T05:17:32;96668.78;;;10.59;80.37
16094;BME280;8151;47.824;12.092;2022-09-20T05:20:24;96675.75;;;10.60;80.27
16094;BME280;8151;47.824;12.092;2022-09-20T05:26:11;96669.63;;;10.68;80.34
16094;BME280;8151;47.824;12.092;2022-09-20T05:28:49;96680.22;;;10.68;80.48
16094;BME280;8151;47.824;12.092;2022-09-20T05:31:28;96671.28;;;10.69;80.46
16094;BME280;8151;47.824;12.092;2022-09-20T05:34:06;96679.06;;;10.71;80.32
16094;BME280;8151;47.824;12.092;2022-09-20T05:36:51;96687.31;;;10.68;79.96
16094;BME280;8151;47.824;12.092;2022-09-20T05:39:32;96686.66;;;10.66;80.63
16094;BME280;8151;47.824;12.092;2022-09-20T05:42:10;96687.66;;;10.64;80.06
16094;BME280;8151;47.824;12.092;2022-09-20T05:45:06;96691.13;;;10.65;80.63
16094;BME280;8151;47.824;12.092;2022-09-20T05:47:51;96689.16;;;10.75;80.00
16094;BME280;8151;47.824;12.092;2022-09-20T05:50:38;96687.53;;;10.82;80.36
16094;BME280;8151;47.824;12.092;2022-09-20T05:53:33;96696.31;;;10.83;80.08
16094;BME280;8151;47.824;12.092;2022-09-20T05:56:13;96694.16;;;10.87;80.00
16094;BME280;8151;47.824;12.092;2022-09-20T05:59:04;96697.63;;;10.87;80.01
16094;BME280;8151;47.824;12.092;2022-09-20T06:01:40;96700.28;;;10.87;80.05
16094;BME280;8151;47.824;12.092;2022-09-20T06:04:14;96705.72;;;10.86;80.02
16094;BME280;8151;47.824;12.092;2022-09-20T06:06:50;96705.41;;;10.89;80.28
16094;BME280;8151;47.824;12.092;2022-09-20T06:09:41;96704.75;;;10.95;80.22
16094;BME280;8151;47.824;12.092;2022-09-20T06:12:25;96708.75;;;10.99;80.19
16094;BME280;8151;47.824;12.092;2022-09-20T06:15:02;96704.97;;;11.01;79.61
16094;BME280;8151;47.824;12.092;2022-09-20T06:17:42;96709.09;;;11.04;79.70
16094;BME280;8151;47.824;12.092;2022-09-20T06:20:19;96716.22;;;11.03;79.86
16094;BME280;8151;47.824;12.092;2022-09-20T06:22:53;96710.78;;;11.05;79.88
16094;BME280;8151;47.824;12.092;2022-09-20T06:25:27;96713.22;;;11.07;79.64
16094;BME280;8151;47.824;12.092;2022-09-20T06:27:59;96718.06;;;11.11;79.45
16094;BME280;8151;47.824;12.092;2022-09-20T06:30:34;96721.38;;;11.13;79.67
16094;BME280;8151;47.824;12.092;2022-09-20T06:33:13;96720.88;;;11.18;79.44
16094;BME280;8151;47.824;12.092;2022-09-20T06:35:45;96718.72;;;11.21;79.43
16094;BME280;8151;47.824;12.092;2022-09-20T06:38:37;96720.22;;;11.24;79.11
16094;BME280;8151;47.824;12.092;2022-09-20T06:41:31;96723.38;;;11.28;79.02
16094;BME280;8151;47.824;12.092;2022-09-20T06:44:03;96722.03;;;11.32;79.13
16094;BME280;8151;47.824;12.092;2022-09-20T06:46:34;96727.03;;;11.35;78.79
16094;BME280;8151;47.824;12.092;2022-09-20T06:49:03;96725.69;;;11.31;79.01
16094;BME280;8151;47.824;12.092;2022-09-20T06:51:37;96725.53;;;11.32;78.80
16094;BME280;8151;47.824;12.092;2022-09-20T06:54:06;96725.84;;;11.37;79.01
16094;BME280;8151;47.824;12.092;2022-09-20T06:56:43;96718.41;;;11.41;78.79
16094;BME280;8151;47.824;12.092;2022-09-20T06:59:13;96726.56;;;11.48;78.92
16094;BME280;8151;47.824;12.092;2022-09-20T07:01:42;96725.03;;;11.53;78.56
16094;BME280;8151;47.824;12.092;2022-09-20T07:04:10;96726.03;;;11.60;78.49
16094;BME280;8151;47.824;12.092;2022-09-20T07:06:39;96727.34;;;11.65;78.25
16094;BME280;8151;47.824;12.092;2022-09-20T07:09:10;96725.22;;;11.68;78.44
16094;BME280;8151;47.824;12.092;2022-09-20T07:11:38;96714.09;;;11.73;78.18
16094;BME280;8151;47.824;12.092;2022-09-20T07:14:08;96724.38;;;11.76;78.13
16094;BME280;8151;47.824;12.092;2022-09-20T07:16:37;96726.72;;;11.79;78.27
16094;BME280;8151;47.824;12.092;2022-09-20T07:19:06;96728.50;;;11.78;78.08
16094;BME280;8151;47.824;12.092;2022-09-20T07:21:34;96739.13;;;11.78;78.32
16094;BME280;8151;47.824;12.092;2022-09-20T07:24:03;96736.66;;;11.77;78.28
16094;BME280;8151;47.824;12.092;2022-09-20T07:26:31;96736.00;;;11.75;78.24
16094;BME280;8151;47.824;12.092;2022-09-20T07:29:00;96737.97;;;11.73;78.16
16094;BME280;8151;47.824;12.092;2022-09-20T07:31:30;96736.97;;;11.66;78.17
16094;BME280;8151;47.824;12.092;2022-09-20T07:33:59;96739.13;;;11.62;78.27
16094;BME280;8151;47.824;12.092;2022-09-20T07:36:27;96739.13;;;11.62;77.97
16094;BME280;8151;47.824;12.092;2022-09-20T07:38:56;96738.97;;;11.63;78.23
16094;BME280;8151;47.824;12.092;2022-09-20T07:41:24;96735.97;;;11.67;78.28
16094;BME280;8151;47.824;12.092;2022-09-20T07:43:58;96746.75;;;11.73;78.11
16094;BME280;8151;47.824;12.092;2022-09-20T07:46:49;96747.41;;;11.75;77.94
16094;BME280;8151;47.824;12.092;2022-09-20T07:49:17;96747.06;;;11.78;77.58
16094;BME280;8151;47.824;12.092;2022-09-20T07:51:47;96752.22;;;11.80;77.60
16094;BME280;8151;47.824;12.092;2022-09-20T07:54:16;96747.91;;;11.79;77.52
16094;BME280;8151;47.824;12.092;2022-09-20T07:56:45;96754.88;;;11.80;77.61
16094;BME280;8151;47.824;12.092;2022-09-20T07:59:13;96751.41;;;11.79;77.56
16094;BME280;8151;47.824;12.092;2022-09-20T08:01:42;96751.41;;;11.79;77.54
16094;BME280;8151;47.824;12.092;2022-09-20T08:04:12;96748.06;;;11.77;77.47
16094;BME280;8151;47.824;12.092;2022-09-20T08:06:42;96749.25;;;11.75;77.77
16094;BME280;8151;47.824;12.092;2022-09-20T08:09:12;96748.56;;;11.73;77.93
16094;BME280;8151;47.824;12.092;2022-09-20T08:11:41;96753.84;;;11.73;78.09
16094;BME280;8151;47.824;12.092;2022-09-20T08:14:12;96753.69;;;11.74;77.96
16094;BME280;8151;47.824;12.092;2022-09-20T08:16:42;96756.84;;;11.78;77.88
16094;BME280;8151;47.824;12.092;2022-09-20T08:19:15;96757.03;;;11.85;77.79
16094;BME280;8151;47.824;12.092;2022-09-20T08:21:44;96764.34;;;11.91;77.89
16094;BME280;8151;47.824;12.092;2022-09-20T08:24:13;96759.53;;;11.94;77.65
16094;BME280;8151;47.824;12.092;2022-09-20T08:26:43;96749.09;;;12.01;77.72
16094;BME280;8151;47.824;12.092;2022-09-20T08:29:11;96755.38;;;12.08;77.50
16094;BME280;8151;47.824;12.092;2022-09-20T08:31:41;96747.56;;;12.15;77.13
16094;BME280;8151;47.824;12.092;2022-09-20T08:34:11;96742.44;;;12.21;76.95
16094;BME280;8151;47.824;12.092;2022-09-20T08:36:44;96744.25;;;12.29;76.63
16094;BME280;8151;47.824;12.092;2022-09-20T08:39:13;96750.50;;;12.45;76.41
16094;BME280;8151;47.824;12.092;2022-09-20T08:42:09;96750.28;;;12.63;76.28
16094;BME280;8151;47.824;12.092;2022-09-20T08:44:46;96749.25;;;12.72;76.11
16094;BME280;8151;47.824;12.092;2022-09-20T08:47:28;96741.94;;;12.74;76.09
16094;BME280;8151;47.824;12.092;2022-09-20T08:49:59;96742.91;;;12.73;75.95
16094;BME280;8151;47.824;12.092;2022-09-20T08:52:37;96740.44;;;12.71;76.22
16094;BME280;8151;47.824;12.092;2022-09-20T08:55:12;96740.63;;;12.70;76.23
16094;BME280;8151;47.824;12.092;2022-09-20T08:57:46;96747.25;;;12.66;76.28
16094;BME280;8151;47.824;12.092;2022-09-20T09:00:18;96750.31;;;12.54;76.44
16094;BME280;8151;47.824;12.092;2022-09-20T09:02:49;96758.13;;;12.39;76.76
16094;BME280;8151;47.824;12.092;2022-09-20T09:05:33;96772.94;;;12.17;77.40
16094;BME280;8151;47.824;12.092;2022-09-20T09:08:08;96784.72;;;11.90;77.88
16094;BME280;8151;47.824;12.092;2022-09-20T09:10:44;96792.28;;;11.60;78.42
16094;BME280;8151;47.824;12.092;2022-09-20T09:13:19;96796.88;;;11.34;79.16
16094;BME280;8151;47.824;12.092;2022-09-20T09:15:53;96791.19;;;11.12;79.51
16094;BME280;8151;47.824;12.092;2022-09-20T09:18:31;96787.69;;;10.95;79.87
16094;BME280;8151;47.824;12.092;2022-09-20T09:21:03;96781.53;;;10.95;80.19
16094;BME280;8151;47.824;12.092;2022-09-20T09:23:39;96785.19;;;10.94;80.27
16094;BME280;8151;47.824;12.092;2022-09-20T09:26:17;96778.22;;;10.93;80.73
16094;BME280;8151;47.824;12.092;2022-09-20T09:29:14;96782.19;;;10.89;80.88
16094;BME280;8151;47.824;12.092;2022-09-20T09:31:42;96777.53;;;10.82;80.52
16094;BME280;8151;47.824;12.092;2022-09-20T09:34:25;96773.28;;;10.90;80.53
16094;BME280;8151;47.824;12.092;2022-09-20T09:36:54;96777.56;;;10.91;80.37
16094;BME280;8151;47.824;12.092;2022-09-20T09:39:27;96779.38;;;10.90;80.40
16094;BME280;8151;47.824;12.092;2022-09-20T09:41:57;96773.75;;;10.93;81.15
16094;BME280;8151;47.824;12.092;2022-09-20T09:44:28;96776.41;;;10.93;81.06
16094;BME280;8151;47.824;12.092;2022-09-20T09:46:59;96761.84;;;10.89;81.30
16094;BME280;8151;47.824;12.092;2022-09-20T09:49:28;96769.47;;;10.92;81.03
16094;BME280;8151;47.824;12.092;2022-09-20T09:52:09;96764.47;;;10.89;81.62
16094;BME280;8151;47.824;12.092;2022-09-20T09:54:45;96767.13;;;10.89;81.48
16094;BME280;8151;47.824;12.092;2022-09-20T09:57:33;96769.25;;;10.86;81.59
16094;BME280;8151;47.824;12.092;2022-09-20T10:00:09;96773.72;;;10.85;81.49
16094;BME280;8151;47.824;12.092;2022-09-20T10:03:10;96771.91;;;10.86;82.27
16094;BME280;8151;47.824;12.092;2022-09-20T10:05:52;96773.28;;;10.90;81.61
16094;BME280;8151;47.824;12.092;2022-09-20T10:08:30;96770.28;;;10.93;81.50
16094;BME280;8151;47.824;12.092;2022-09-20T10:11:13;96764.31;;;10.91;81.98
16094;BME280;8151;47.824;12.092;2022-09-20T10:13:49;96769.63;;;10.91;81.79
16094;BME280;8151;47.824;12.092;2022-09-20T10:16:26;96764.19;;;11.00;82.19
16094;BME280;8151;47.824;12.092;2022-09-20T10:19:02;96764.06;;;11.10;81.87
16094;BME280;8151;47.824;12.092;2022-09-20T10:21:42;96765.91;;;11.18;81.74
16094;BME280;8151;47.824;12.092;2022-09-20T10:24:24;96761.78;;;11.23;81.94
16094;BME280;8151;47.824;12.092;2022-09-20T10:27:09;96763.09;;;11.28;82.11
16094;BME280;8151;47.824;12.092;2022-09-20T10:29:47;96759.84;;;11.42;81.90
16094;BME280;8151;47.824;12.092;2022-09-20T10:32:31;96766.13;;;11.57;81.44
16094;BME280;8151;47.824;12.092;2022-09-20T10:35:21;96758.03;;;11.67;81.43
16094;BME280;8151;47.824;12.092;2022-09-20T10:38:12;96757.53;;;11.72;81.57
16094;BME280;8151;47.824;12.092;2022-09-20T10:40:52;96750.22;;;11.82;81.46
16094;BME280;8151;47.824;12.092;2022-09-20T10:43:52;96753.03;;;11.80;81.59
16094;BME280;8151;47.824;12.092;2022-09-20T10:46:37;96752.56;;;11.77;81.38
16094;BME280;8151;47.824;12.092;2022-09-20T10:49:19;96758.34;;;11.80;81.70
16094;BME280;8151;47.824;12.092;2022-09-20T10:52:06;96757.66;;;11.78;81.37
16094;BME280;8151;47.824;12.092;2022-09-20T10:54:47;96755.69;;;11.72;81.69
16094;BME280;8151;47.824;12.092;2022-09-20T10:57:51;96757.53;;;11.72;81.88
16094;BME280;8151;47.824;12.092;2022-09-20T11:00:38;96752.56;;;11.77;81.83
16094;BME280;8151;47.824;12.092;2022-09-20T11:03:19;96752.06;;;11.81;81.59
16094;BME280;8151;47.824;12.092;2022-09-20T11:06:00;96749.06;;;11.76;81.76
16094;BME280;8151;47.824;12.092;2022-09-20T11:08:32;96755.53;;;11.74;82.04
16094;BME280;8151;47.824;12.092;2022-09-20T11:11:07;96751.88;;;11.83;81.94
16094;BME280;8151;47.824;12.092;2022-09-20T11:13:40;96760.50;;;11.85;81.91
16094;BME280;8151;47.824;12.092;2022-09-20T11:16:15;96766.63;;;11.77;81.83
16094;BME280;8151;47.824;12.092;2022-09-20T11:18:50;96767.81;;;11.75;82.00
16094;BME280;8151;47.824;12.092;2022-09-20T11:21:24;96770.78;;;11.80;81.94
16094;BME280;8151;47.824;12.092;2022-09-20T11:23:58;96776.75;;;11.90;81.51
16094;BME280;8151;47.824;12.092;2022-09-20T11:26:34;96772.44;;;11.97;81.80
16094;BME280;8151;47.824;12.092;2022-09-20T11:29:17;96762.00;;;12.12;81.51
16094;BME280;8151;47.824;12.092;2022-09-20T11:31:52;96756.66;;;12.29;81.19
16094;BME280;8151;47.824;12.092;2022-09-20T11:34:26;96760.78;;;12.39;81.05
16094;BME280;8151;47.824;12.092;2022-09-20T11:36:58;96768.06;;;12.46;80.86
16094;BME280;8151;47.824;12.092;2022-09-20T11:39:35;96772.84;;;12.50;80.88
16094;BME280;8151;47.824;12.092;2022-09-20T11:42:10;96761.06;;;12.61;80.63
16094;BME280;8151;47.824;12.092;2022-09-20T11:44:42;96760.03;;;12.70;80.33
16094;BME280;8151;47.824;12.092;2022-09-20T11:47:16;96754.44;;;12.96;79.98
16094;BME280;8151;47.824;12.092;2022-09-20T11:50:39;96756.44;;;13.34;78.58
16094;BME280;8151;47.824;12.092;2022-09-20T11:53:23;96741.31;;;13.57;78.69
16094;BME280;8151;47.824;12.092;2022-09-20T11:56:05;96736.97;;;13.56;78.53
16094;BME280;8151;47.824;12.092;2022-09-20T11:58:43;96738.94;;;13.39;78.39
16094;BME280;8151;47.824;12.092;2022-09-20T12:01:23;96735.50;;;13.31;78.46
16094;BME280;8151;47.824;12.092;2022-09-20T12:03:57;96736.34;;;13.31;78.78
16094;BME280;8151;47.824;12.092;2022-09-20T12:06:57;96733.16;;;13.36;78.12
16094;BME280;8151;47.824;12.092;2022-09-20T12:09:32;96726.53;;;13.55;77.43
16094;BME280;8151;47.824;12.092;2022-09-20T12:12:15;96730.19;;;13.77;76.62
16094;BME280;8151;47.824;12.092;2022-09-20T12:14:53;96719.13;;;13.88;75.96
16094;BME280;8151;47.824;12.092;2022-09-20T12:21:01;96721.97;;;13.87;75.40
16094;BME280;8151;47.824;12.092;2022-09-20T12:30:01;96713.53;;;13.98;74.91
16094;BME280;8151;47.824;12.092;2022-09-20T12:32:45;96701.63;;;14.09;75.07
16094;BME280;8151;47.824;12.092;2022-09-20T12:38:38;96714.56;;;14.12;74.60
16094;BME280;8151;47.824;12.092;2022-09-20T12:41:15;96723.16;;;13.99;74.93
16094;BME280;8151;47.824;12.092;2022-09-20T12:43:57;96719.38;;;13.93;74.84
16094;BME280;8151;47.824;12.092;2022-09-20T12:46:40;96715.34;;;13.97;74.77
16094;BME280;8151;47.824;12.092;2022-09-20T12:49:34;96714.19;;;14.15;73.71
16094;BME280;8151;47.824;12.092;2022-09-20T12:52:31;96711.19;;;14.18;73.82
16094;BME280;8151;47.824;12.092;2022-09-20T12:55:35;96722.28;;;14.22;73.42
16094;BME280;8151;47.824;12.092;2022-09-20T12:58:19;96724.66;;;14.16;73.01
16094;BME280;8151;47.824;12.092;2022-09-20T13:00:51;96724.19;;;14.13;73.03
16094;BME280;8151;47.824;12.092;2022-09-20T13:03:42;96723.47;;;14.04;73.02
16094;BME280;8151;47.824;12.092;2022-09-20T13:06:22;96726.84;;;13.98;72.61
16094;BME280;8151;47.824;12.092;2022-09-20T13:08:55;96723.34;;;13.97;72.69
16094;BME280;8151;47.824;12.092;2022-09-20T13:11:34;96730.31;;;13.98;72.17
16094;BME280;8151;47.824;12.092;2022-09-20T13:14:09;96724.19;;;13.98;71.89
16094;BME280;8151;47.824;12.092;2022-09-20T13:16:46;96721.69;;;13.96;71.02
16094;BME280;8151;47.824;12.092;2022-09-20T13:19:18;96718.88;;;13.98;70.79
16094;BME280;8151;47.824;12.092;2022-09-20T13:21:54;96712.34;;;14.01;69.90
16094;BME280;8151;47.824;12.092;2022-09-20T13:24:26;96718.88;;;14.13;69.91
16094;BME280;8151;47.824;12.092;2022-09-20T13:27:01;96713.09;;;14.24;69.23
16094;BME280;8151;47.824;12.092;2022-09-20T13:29:32;96717.44;;;14.25;68.85
16094;BME280;8151;47.824;12.092;2022-09-20T13:32:15;96718.91;;;14.28;68.50
16094;BME280;8151;47.824;12.092;2022-09-20T13:34:44;96722.38;;;14.28;68.88
16094;BME280;8151;47.824;12.092;2022-09-20T13:37:17;96713.38;;;14.29;68.41
16094;BME280;8151;47.824;12.092;2022-09-20T13:39:52;96705.59;;;14.28;68.35
16094;BME280;8151;47.824;12.092;2022-09-20T13:42:23;96716.59;;;14.25;68.18
16094;BME280;8151;47.824;12.092;2022-09-20T13:44:56;96711.91;;;14.27;68.00
16094;BME280;8151;47.824;12.092;2022-09-20T13:47:27;96710.91;;;14.28;67.63
16094;BME280;8151;47.824;12.092;2022-09-20T13:50:00;96714.56;;;14.27;67.72
16094;BME280;8151;47.824;12.092;2022-09-20T13:52:30;96718.59;;;14.23;67.38
16094;BME280;8151;47.824;12.092;2022-09-20T13:54:59;96723.19;;;14.14;67.30
16094;BME280;8151;47.824;12.092;2022-09-20T13:57:29;96716.59;;;14.10;67.40
16094;BME280;8151;47.824;12.092;2022-09-20T13:59:58;96715.56;;;14.11;67.48
16094;BME280;8151;47.824;12.092;2022-09-20T14:02:30;96716.16;;;14.21;66.96
16094;BME280;8151;47.824;12.092;2022-09-20T14:05:00;96715.88;;;14.31;66.79
16094;BME280;8151;47.824;12.092;2022-09-20T14:07:29;96716.03;;;14.44;66.45
16094;BME280;8151;47.824;12.092;2022-09-20T14:09:58;96708.25;;;14.43;66.42
16094;BME280;8151;47.824;12.092;2022-09-20T14:12:28;96715.59;;;14.41;66.51
16094;BME280;8151;47.824;12.092;2022-09-20T14:14:57;96726.25;;;14.41;66.62
16094;BME280;8151;47.824;12.092;2022-09-20T14:17:29;96722.47;;;14.35;66.47
16094;BME280;8151;47.824;12.092;2022-09-20T14:19:59;96719.25;;;14.25;66.60
16094;BME280;8151;47.824;12.092;2022-09-20T14:22:28;96726.31;;;14.17;66.45
16094;BME280;8151;47.824;12.092;2022-09-20T14:24:59;96721.75;;;14.11;66.22
16094;BME280;8151;47.824;12.092;2022-09-20T14:27:29;96717.50;;;14.02;66.28
16094;BME280;8151;47.824;12.092;2022-09-20T14:29:58;96723.72;;;13.94;66.09
16094;BME280;8151;47.824;12.092;2022-09-20T14:32:37;96711.97;;;13.89;65.88
16094;BME280;8151;47.824;12.092;2022-09-20T14:35:13;96718.09;;;13.89;66.17
16094;BME280;8151;47.824;12.092;2022-09-20T14:37:45;96711.97;;;13.89;66.28
16094;BME280;8151;47.824;12.092;2022-09-20T14:40:21;96714.44;;;13.90;66.10